Time;durP1;ratioP1;P1;durP2;ratioP2;P2;SDS_P1;SDS_P2;PMS_P1;PMS_P2;Temp;Humidity;BMP_temperature;BMP_pressure;BME280_temperature;BME280_humidity;BME280_pressure;Samples;Min_cycle;Max_cycle;Signal;HPM_P1;HPM_P2
2022/11/18 00:01:01;;;;;;;;;;;;;;;;;;1794934;80;20203;-66
2022/11/18 00:03:29;;;;;;;;;;;;;;;;;;1795634;80;20206;-65
2022/11/18 00:05:56;;;;;;;;;;;;;;;;;;1771208;78;20205;-66
2022/11/18 00:08:23;;;;;;;;;;;;;;;;;;1826525;78;20184;-66
2022/11/18 00:10:50;;;;;;;;;;;;;;;;;;1824932;79;20241;-65
2022/11/18 00:16:02;;;;;;;;;;;;;;;;;;1825081;78;20179;-65
2022/11/18 00:18:29;;;;;;;;;;;;;;;;;;1798671;79;20445;-65
2022/11/18 00:20:56;;;;;;;;;;;;;;;;;;1824885;79;20207;-65
2022/11/18 00:23:23;;;;;;;;;;;;;;;;;;1795472;80;20191;-67
2022/11/18 00:25:50;;;;;;;;;;;;;;;;;;1795212;80;20419;-66
2022/11/18 00:28:17;;;;;;;;;;;;;;;;;;1793705;80;20934;-66
2022/11/18 00:30:43;;;;;;;;;;;;;;;;;;1824963;79;20523;-65
2022/11/18 00:33:11;;;;;;;;;;;;;;;;;;1795500;80;20378;-65
2022/11/18 00:35:38;;;;;;;;;;;;;;;;;;1772535;80;20209;-65
2022/11/18 00:38:04;;;;;;;;;;;;;;;;;;1793776;80;20201;-65
2022/11/18 00:40:31;;;;;;;;;;;;;;;;;;1824667;79;20207;-66
2022/11/18 00:42:58;;;;;;;;;;;;;;;;;;1795490;80;20198;-65
2022/11/18 00:45:25;;;;;;;;;;;;;;;;;;1795377;80;20178;-65
2022/11/18 00:47:52;;;;;;;;;;;;;;;;;;1771039;80;20154;-66
2022/11/18 00:50:19;;;;;;;;;;;;;;;;;;1795209;80;20237;-65
2022/11/18 00:52:46;;;;;;;;;;;;;;;;;;1795608;80;20162;-65
2022/11/18 00:55:13;;;;;;;;;;;;;;;;;;1793600;80;20166;-65
2022/11/18 00:57:40;;;;;;;;;;;;;;;;;;1824927;78;20164;-66
2022/11/18 01:00:07;;;;;;;;;;;;;;;;;;1791470;80;20166;-66
2022/11/18 01:02:34;;;;;;;;;;;;;;;;;;1801306;79;20463;-65
2022/11/18 01:05:01;;;;;;;;;;;;;;;;;;1795254;80;20204;-66
2022/11/18 01:07:27;;;;;;;;;;;;;;;;;;1772721;80;20181;-66
2022/11/18 01:09:56;;;;;;;;;;;;;;;;;;1793900;80;20123;-66
2022/11/18 01:15:20;;;;;;;;;;;;;;;;;;1763970;80;20662;-65
2022/11/18 01:17:47;;;;;;;;;;;;;;;;;;1795347;80;20598;-65
2022/11/18 01:20:14;;;;;;;;;;;;;;;;;;1793632;80;20443;-65
2022/11/18 01:22:41;;;;;;;;;;;;;;;;;;1798459;79;20207;-66
2022/11/18 01:25:08;;;;;;;;;;;;;;;;;;1826351;78;20180;-65
2022/11/18 01:27:35;;;;;;;;;;;;;;;;;;1795548;80;20271;-66
2022/11/18 01:30:02;;;;;;;;;;;;;;;;;;1772559;80;20177;-66
2022/11/18 01:32:29;;;;;;;;;;;;;;;;;;1793882;80;20212;-66
2022/11/18 01:34:55;;;;;;;;;;;;;;;;;;1797861;79;20199;-66
2022/11/18 01:37:22;;;;;;;;;;;;;;;;;;1825169;79;20168;-66
2022/11/18 01:39:49;;;;;;;;;;;;;;;;;;1795542;80;20191;-66
2022/11/18 01:42:16;;;;;;;;;;;;;;;;;;1795477;80;20186;-66
2022/11/18 01:44:43;;;;;;;;;;;;;;;;;;1771222;80;20179;-65
2022/11/18 01:47:10;;;;;;;;;;;;;;;;;;1769766;80;20207;-65
2022/11/18 01:49:38;;;;;;;;;;;;;;;;;;1772944;80;20213;-66
2022/11/18 01:52:05;;;;;;;;;;;;;;;;;;1793617;80;20127;-66
2022/11/18 01:54:32;;;;;;;;;;;;;;;;;;1795492;80;20207;-65
2022/11/18 01:56:59;;;;;;;;;;;;;;;;;;1795227;80;20215;-66
2022/11/18 01:59:26;;;;;;;;;;;;;;;;;;1794096;80;20178;-65
2022/11/18 02:01:52;;;;;;;;;;;;;;;;;;1798040;79;20179;-65
2022/11/18 02:04:19;;;;;;;;;;;;;;;;;;1826862;78;20199;-65
2022/11/18 02:06:46;;;;;;;;;;;;;;;;;;1795274;78;20210;-66
2022/11/18 02:09:13;;;;;;;;;;;;;;;;;;1795611;80;20118;-65
2022/11/18 02:11:53;;;;;;;;;;;;;;;;;;1793778;80;20175;-66
2022/11/18 02:14:20;;;;;;;;;;;;;;;;;;1825074;78;20215;-66
2022/11/18 02:16:47;;;;;;;;;;;;;;;;;;1826726;78;20172;-66
2022/11/18 02:19:14;;;;;;;;;;;;;;;;;;1795527;80;20156;-66
2022/11/18 02:21:41;;;;;;;;;;;;;;;;;;1772650;80;20219;-66
2022/11/18 02:24:08;;;;;;;;;;;;;;;;;;1793757;80;20178;-66
2022/11/18 02:26:34;;;;;;;;;;;;;;;;;;1769705;80;20210;-66
2022/11/18 02:29:01;;;;;;;;;;;;;;;;;;1772845;80;20175;-66
2022/11/18 02:31:28;;;;;;;;;;;;;;;;;;1771123;80;20174;-66
2022/11/18 02:33:55;;;;;;;;;;;;;;;;;;1825179;79;20121;-66
2022/11/18 02:36:22;;;;;;;;;;;;;;;;;;1826638;78;20168;-66
2022/11/18 02:38:49;;;;;;;;;;;;;;;;;;1825195;79;20163;-66
2022/11/18 02:41:16;;;;;;;;;;;;;;;;;;1798515;79;20223;-67
2022/11/18 02:43:43;;;;;;;;;;;;;;;;;;1825345;79;20179;-66
2022/11/18 02:46:10;;;;;;;;;;;;;;;;;;1798273;79;20172;-66
2022/11/18 02:48:37;;;;;;;;;;;;;;;;;;1826702;78;20175;-66
2022/11/18 02:51:04;;;;;;;;;;;;;;;;;;1795131;80;20476;-66
2022/11/18 02:53:31;;;;;;;;;;;;;;;;;;1795555;80;20489;-66
2022/11/18 02:55:58;;;;;;;;;;;;;;;;;;1770984;80;20432;-66
2022/11/18 02:58:25;;;;;;;;;;;;;;;;;;1824920;79;20179;-66
2022/11/18 03:00:52;;;;;;;;;;;;;;;;;;1798196;79;20188;-66
2022/11/18 03:03:19;;;;;;;;;;;;;;;;;;1826395;78;20195;-65
2022/11/18 03:05:46;;;;;;;;;;;;;;;;;;1826565;78;20205;-66
2022/11/18 03:08:13;;;;;;;;;;;;;;;;;;1825110;77;20117;-66
2022/11/18 03:10:40;;;;;;;;;;;;;;;;;;1824993;79;20184;-66
2022/11/18 03:13:07;;;;;;;;;;;;;;;;;;1821362;78;20284;-65
2022/11/18 03:15:34;;;;;;;;;;;;;;;;;;1795462;80;20163;-66
2022/11/18 03:18:01;;;;;;;;;;;;;;;;;;1772645;80;20213;-66
2022/11/18 03:20:28;;;;;;;;;;;;;;;;;;1793705;80;20302;-65
2022/11/18 03:22:55;;;;;;;;;;;;;;;;;;1825056;78;20167;-65
2022/11/18 03:25:22;;;;;;;;;;;;;;;;;;1826538;78;20567;-65
2022/11/18 03:27:49;;;;;;;;;;;;;;;;;;1825068;79;20342;-65
2022/11/18 03:30:16;;;;;;;;;;;;;;;;;;1769642;80;20230;-66
2022/11/18 03:32:45;;;;;;;;;;;;;;;;;;1795608;80;20135;-65
2022/11/18 03:35:12;;;;;;;;;;;;;;;;;;1793658;80;20206;-66
2022/11/18 03:37:39;;;;;;;;;;;;;;;;;;1824975;79;20172;-66
2022/11/18 03:40:06;;;;;;;;;;;;;;;;;;1825022;79;20124;-66
2022/11/18 03:42:33;;;;;;;;;;;;;;;;;;1797157;79;20246;-66
2022/11/18 03:45:00;;;;;;;;;;;;;;;;;;1765417;80;20474;-66
2022/11/18 03:47:27;;;;;;;;;;;;;;;;;;1824843;78;20160;-66
2022/11/18 03:49:53;;;;;;;;;;;;;;;;;;1769909;80;20463;-66
2022/11/18 03:52:20;;;;;;;;;;;;;;;;;;1795193;80;20206;-65
2022/11/18 03:54:47;;;;;;;;;;;;;;;;;;1795431;80;20490;-66
2022/11/18 03:57:15;;;;;;;;;;;;;;;;;;1770901;80;20135;-66
2022/11/18 03:59:41;;;;;;;;;;;;;;;;;;1769892;80;20475;-66
2022/11/18 04:02:08;;;;;;;;;;;;;;;;;;1795077;80;20447;-66
2022/11/18 04:04:35;;;;;;;;;;;;;;;;;;1771131;80;20314;-67
2022/11/18 04:07:02;;;;;;;;;;;;;;;;;;1769561;80;20327;-65
2022/11/18 04:09:29;;;;;;;;;;;;;;;;;;1772291;80;20174;-66
2022/11/18 04:12:02;;;;;;;;;;;;;;;;;;1793704;80;20290;-66
2022/11/18 04:14:29;;;;;;;;;;;;;;;;;;1795485;80;20194;-66
2022/11/18 04:16:56;;;;;;;;;;;;;;;;;;1772269;80;20177;-68
2022/11/18 04:19:23;;;;;;;;;;;;;;;;;;1765139;80;20508;-68
2022/11/18 04:21:50;;;;;;;;;;;;;;;;;;1824704;79;20176;-66
2022/11/18 04:24:17;;;;;;;;;;;;;;;;;;1825068;78;20176;-66
2022/11/18 04:26:44;;;;;;;;;;;;;;;;;;1795138;80;20200;-61
2022/11/18 04:29:10;;;;;;;;;;;;;;;;;;1795786;80;20478;-61
2022/11/18 04:31:38;;;;;;;;;;;;;;;;;;1793674;80;20185;-61
2022/11/18 04:34:04;;;;;;;;;;;;;;;;;;1827154;78;20417;-61
2022/11/18 04:36:31;;;;;;;;;;;;;;;;;;1795272;80;20231;-61
2022/11/18 04:38:58;;;;;;;;;;;;;;;;;;1795491;80;20212;-61
2022/11/18 04:41:54;;;;;;;;;;;;;;;;;;1793584;80;20170;-61
2022/11/18 04:43:54;;;;;;;;;;;;;;;;;;1821257;79;20398;-61
2022/11/18 04:46:22;;;;;;;;;;;;;;;;;;1794902;80;20488;-61
2022/11/18 04:48:49;;;;;;;;;;;;;;;;;;1795261;80;20189;-61
2022/11/18 04:51:15;;;;;;;;;;;;;;;;;;1770526;80;20468;-61
2022/11/18 04:53:42;;;;;;;;;;;;;;;;;;1824302;79;20460;-61
2022/11/18 04:56:09;;;;;;;;;;;;;;;;;;1795444;80;20214;-61
2022/11/18 04:58:36;;;;;;;;;;;;;;;;;;1773045;80;20166;-61
2022/11/18 05:01:03;;;;;;;;;;;;;;;;;;1758270;80;447274;-61
2022/11/18 05:03:30;;;;;;;;;;;;;;;;;;1765312;80;20379;-70
2022/11/18 05:05:57;;;;;;;;;;;;;;;;;;1756274;80;20354;-61
2022/11/18 05:08:24;;;;;;;;;;;;;;;;;;1755377;80;20186;-62
2022/11/18 05:12:47;;;;;;;;;;;;;;;;;;1811719;79;20563;-61
2022/11/18 05:13:20;;;;;;;;;;;;;;;;;;1755519;80;20189;-60
2022/11/18 05:15:47;;;;;;;;;;;;;;;;;;1813320;78;20905;-60
2022/11/18 05:18:13;;;;;;;;;;;;;;;;;;1757762;80;20217;-61
2022/11/18 05:20:40;;;;;;;;;;;;;;;;;;1809102;79;20192;-60
2022/11/18 05:23:07;;;;;;;;;;;;;;;;;;1788426;79;20183;-59
2022/11/18 05:25:35;;;;;;;;;;;;;;;;;;1810009;78;20688;-62
2022/11/18 05:28:02;;;;;;;;;;;;;;;;;;1789103;79;20157;-60
2022/11/18 05:30:28;;;;;;;;;;;;;;;;;;1835533;77;20705;-63
2022/11/18 05:32:56;;;;;;;;;;;;;;;;;;1808743;79;20438;-61
2022/11/18 05:35:23;;;;;;;;;;;;;;;;;;1765020;80;20196;-60
2022/11/18 05:37:49;;;;;;;;;;;;;;;;;;1782668;80;20177;-60
2022/11/18 05:40:16;;;;;;;;;;;;;;;;;;1755149;80;20451;-60
2022/11/18 05:45:32;;;;;;;;;;;;;;;;;;1758690;80;20170;-65
2022/11/18 05:47:59;;;;;;;;;;;;;;;;;;1813292;78;20311;-63
2022/11/18 05:50:26;;;;;;;;;;;;;;;;;;1789758;79;20492;-63
2022/11/18 05:52:53;;;;;;;;;;;;;;;;;;1808979;79;20296;-62
2022/11/18 05:55:20;;;;;;;;;;;;;;;;;;1789110;79;20638;-60
2022/11/18 05:57:47;;;;;;;;;;;;;;;;;;1836459;76;20401;-60
2022/11/18 06:00:14;;;;;;;;;;;;;;;;;;1812663;79;20172;-60
2022/11/18 06:02:41;;;;;;;;;;;;;;;;;;1812841;79;20156;-60
2022/11/18 06:05:08;;;;;;;;;;;;;;;;;;1812832;79;20184;-60
2022/11/18 06:07:35;;;;;;;;;;;;;;;;;;1812449;79;20175;-60
2022/11/18 06:10:02;;;;;;;;;;;;;;;;;;1788152;78;20328;-60
2022/11/18 06:12:29;;;;;;;;;;;;;;;;;;1814029;78;20177;-60
2022/11/18 06:14:57;;;;;;;;;;;;;;;;;;1813305;79;20175;-59
2022/11/18 06:17:24;;;;;;;;;;;;;;;;;;1765132;80;20507;-60
2022/11/18 06:19:51;;;;;;;;;;;;;;;;;;1756918;80;20182;-60
2022/11/18 06:22:18;;;;;;;;;;;;;;;;;;1782423;80;20521;-60
2022/11/18 06:24:45;;;;;;;;;;;;;;;;;;1789007;79;20184;-60
2022/11/18 06:27:12;;;;;;;;;;;;;;;;;;1835987;77;20220;-60
2022/11/18 06:29:38;;;;;;;;;;;;;;;;;;1813044;78;20180;-60
2022/11/18 06:32:05;;;;;;;;;;;;;;;;;;1811990;79;20125;-60
2022/11/18 06:34:33;;;;;;;;;;;;;;;;;;1813278;79;20180;-60
2022/11/18 06:37:00;;;;;;;;;;;;;;;;;;1788827;79;20180;-60
2022/11/18 06:39:28;;;;;;;;;;;;;;;;;;1835796;77;20123;-60
2022/11/18 06:41:55;;;;;;;;;;;;;;;;;;1835610;78;20200;-60
2022/11/18 06:44:22;;;;;;;;;;;;;;;;;;1809229;79;20492;-60
2022/11/18 06:46:55;;;;;;;;;;;;;;;;;;1813236;79;20164;-60
2022/11/18 06:49:22;;;;;;;;;;;;;;;;;;1811910;79;20179;-59
2022/11/18 06:51:48;;;;;;;;;;;;;;;;;;1809676;79;20176;-60
2022/11/18 06:54:15;;;;;;;;;;;;;;;;;;1740312;81;20211;-60
2022/11/18 06:56:42;;;;;;;;;;;;;;;;;;1756160;80;20222;-60
2022/11/18 06:59:09;;;;;;;;;;;;;;;;;;1783487;80;20353;-60
2022/11/18 07:01:36;;;;;;;;;;;;;;;;;;1813025;79;20859;-60
2022/11/18 07:04:03;;;;;;;;;;;;;;;;;;1765396;81;20204;-60
2022/11/18 07:06:30;;;;;;;;;;;;;;;;;;1756104;80;20167;-60
2022/11/18 07:08:57;;;;;;;;;;;;;;;;;;1785833;77;20453;-60
2022/11/18 07:11:25;;;;;;;;;;;;;;;;;;1809372;79;20128;-59
2022/11/18 07:13:52;;;;;;;;;;;;;;;;;;1766131;80;20258;-60
2022/11/18 07:16:20;;;;;;;;;;;;;;;;;;1782030;80;20258;-60
2022/11/18 07:18:47;;;;;;;;;;;;;;;;;;1783428;79;20456;-60
2022/11/18 07:21:13;;;;;;;;;;;;;;;;;;1788423;79;20129;-60
2022/11/18 07:23:40;;;;;;;;;;;;;;;;;;1836377;77;20158;-59
2022/11/18 07:26:07;;;;;;;;;;;;;;;;;;1811311;79;20119;-60
2022/11/18 07:28:34;;;;;;;;;;;;;;;;;;1813956;79;20172;-60
2022/11/18 07:31:02;;;;;;;;;;;;;;;;;;1789288;79;20178;-60
2022/11/18 07:33:29;;;;;;;;;;;;;;;;;;1809416;79;20489;-61
2022/11/18 07:35:56;;;;;;;;;;;;;;;;;;1765195;81;20602;-60
2022/11/18 07:38:23;;;;;;;;;;;;;;;;;;1756673;80;20222;-62
2022/11/18 07:40:50;;;;;;;;;;;;;;;;;;1755502;80;20166;-62
2022/11/18 07:43:17;;;;;;;;;;;;;;;;;;1761372;80;20170;-62
2022/11/18 07:45:44;;;;;;;;;;;;;;;;;;1812029;79;20184;-62
2022/11/18 07:48:10;;;;;;;;;;;;;;;;;;1813132;79;20343;-62
2022/11/18 07:50:37;;;;;;;;;;;;;;;;;;1765904;80;20227;-62
2022/11/18 07:53:04;;;;;;;;;;;;;;;;;;1785405;79;20182;-62
2022/11/18 07:55:31;;;;;;;;;;;;;;;;;;1755077;80;20190;-62
2022/11/18 07:57:58;;;;;;;;;;;;;;;;;;1765916;80;20199;-62
2022/11/18 08:00:25;;;;;;;;;;;;;;;;;;1755920;80;20260;-62
2022/11/18 08:02:52;;;;;;;;;;;;;;;;;;1782240;80;20447;-62
2022/11/18 08:05:19;;;;;;;;;;;;;;;;;;1812259;79;20180;-62
2022/11/18 08:07:46;;;;;;;;;;;;;;;;;;1766018;80;20885;-62
2022/11/18 08:10:13;;;;;;;;;;;;;;;;;;1756976;80;20462;-61
2022/11/18 08:12:40;;;;;;;;;;;;;;;;;;1756834;80;20190;-62
2022/11/18 08:15:07;;;;;;;;;;;;;;;;;;1790319;79;20156;-66
2022/11/18 08:17:34;;;;;;;;;;;;;;;;;;1836207;77;20452;-62
2022/11/18 08:20:01;;;;;;;;;;;;;;;;;;1809751;78;20856;-62
2022/11/18 08:22:28;;;;;;;;;;;;;;;;;;1835891;78;20389;-62
2022/11/18 08:24:54;;;;;;;;;;;;;;;;;;1810359;79;20464;-62
2022/11/18 08:27:21;;;;;;;;;;;;;;;;;;1811758;79;20453;-62
2022/11/18 08:29:48;;;;;;;;;;;;;;;;;;1811509;79;20179;-62
2022/11/18 08:32:16;;;;;;;;;;;;;;;;;;1789381;79;20223;-63
2022/11/18 08:34:43;;;;;;;;;;;;;;;;;;1809847;78;20875;-62
2022/11/18 08:37:09;;;;;;;;;;;;;;;;;;1765808;80;20157;-62
2022/11/18 08:39:36;;;;;;;;;;;;;;;;;;1784129;80;20411;-62
2022/11/18 08:42:03;;;;;;;;;;;;;;;;;;1755453;80;20185;-62
2022/11/18 08:44:32;;;;;;;;;;;;;;;;;;1813809;79;20353;-62
2022/11/18 08:46:59;;;;;;;;;;;;;;;;;;1766318;80;20441;-62
2022/11/18 08:49:26;;;;;;;;;;;;;;;;;;1757835;80;20171;-62
2022/11/18 08:51:53;;;;;;;;;;;;;;;;;;1756439;80;20648;-63
2022/11/18 08:54:20;;;;;;;;;;;;;;;;;;1765628;80;20208;-62
2022/11/18 08:56:50;;;;;;;;;;;;;;;;;;1782239;80;20178;-62
2022/11/18 08:59:17;;;;;;;;;;;;;;;;;;1782190;80;20201;-63
2022/11/18 09:01:44;;;;;;;;;;;;;;;;;;1813291;79;20175;-62
2022/11/18 09:04:10;;;;;;;;;;;;;;;;;;1767322;80;20196;-62
2022/11/18 09:06:39;;;;;;;;;;;;;;;;;;1784080;80;20174;-62
2022/11/18 09:09:06;;;;;;;;;;;;;;;;;;1783501;79;20186;-64
2022/11/18 09:11:33;;;;;;;;;;;;;;;;;;1765490;80;20841;-62
2022/11/18 09:14:00;;;;;;;;;;;;;;;;;;1757659;80;20170;-65
2022/11/18 09:16:27;;;;;;;;;;;;;;;;;;1782906;80;20158;-64
2022/11/18 09:18:54;;;;;;;;;;;;;;;;;;1811913;78;20179;-64
2022/11/18 09:21:21;;;;;;;;;;;;;;;;;;1788075;79;20453;-64
2022/11/18 09:23:48;;;;;;;;;;;;;;;;;;1836132;77;20147;-64
2022/11/18 09:26:15;;;;;;;;;;;;;;;;;;1811748;79;20176;-64
2022/11/18 09:28:42;;;;;;;;;;;;;;;;;;1789887;79;20409;-64
2022/11/18 09:31:09;;;;;;;;;;;;;;;;;;1810255;79;20389;-64
2022/11/18 09:33:36;;;;;;;;;;;;;;;;;;1765444;81;20232;-65
2022/11/18 09:36:03;;;;;;;;;;;;;;;;;;1782817;79;20216;-64
2022/11/18 09:38:30;;;;;;;;;;;;;;;;;;1782024;79;20178;-64
2022/11/18 09:40:57;;;;;;;;;;;;;;;;;;1765476;80;20426;-64
2022/11/18 09:43:24;;;;;;;;;;;;;;;;;;1784226;79;20435;-64
2022/11/18 09:45:51;;;;;;;;;;;;;;;;;;1783517;80;20551;-64
2022/11/18 09:48:18;;;;;;;;;;;;;;;;;;1766383;80;20208;-64
2022/11/18 09:50:45;;;;;;;;;;;;;;;;;;1757334;80;20175;-64
2022/11/18 09:53:12;;;;;;;;;;;;;;;;;;1780954;80;20318;-64
2022/11/18 09:55:39;;;;;;;;;;;;;;;;;;1765777;80;20200;-64
2022/11/18 09:58:06;;;;;;;;;;;;;;;;;;1784353;80;20131;-64
2022/11/18 10:00:33;;;;;;;;;;;;;;;;;;1755839;80;20174;-65
2022/11/18 10:03:00;;;;;;;;;;;;;;;;;;1813356;78;20219;-65
2022/11/18 10:05:27;;;;;;;;;;;;;;;;;;1740342;81;20232;-64
2022/11/18 10:07:54;;;;;;;;;;;;;;;;;;1757651;80;20166;-65
2022/11/18 10:10:21;;;;;;;;;;;;;;;;;;1783305;79;20182;-64
2022/11/18 10:12:48;;;;;;;;;;;;;;;;;;1788987;79;20417;-64
2022/11/18 10:15:15;;;;;;;;;;;;;;;;;;1835927;77;20166;-64
2022/11/18 10:17:43;;;;;;;;;;;;;;;;;;1809310;78;20174;-64
2022/11/18 10:20:10;;;;;;;;;;;;;;;;;;1810023;79;20120;-64
2022/11/18 10:22:37;;;;;;;;;;;;;;;;;;1765739;80;20241;-64
2022/11/18 10:25:04;;;;;;;;;;;;;;;;;;1756973;80;20545;-64
2022/11/18 10:27:31;;;;;;;;;;;;;;;;;;1782531;80;20419;-64
2022/11/18 10:29:58;;;;;;;;;;;;;;;;;;1766105;80;20208;-65
2022/11/18 10:32:25;;;;;;;;;;;;;;;;;;1783534;80;20186;-65
2022/11/18 10:34:52;;;;;;;;;;;;;;;;;;1783057;79;20189;-65
2022/11/18 10:37:19;;;;;;;;;;;;;;;;;;1789321;79;20196;-65
2022/11/18 10:39:46;;;;;;;;;;;;;;;;;;1836248;77;20240;-65
2022/11/18 10:42:13;;;;;;;;;;;;;;;;;;1835514;78;20159;-65
2022/11/18 10:44:40;;;;;;;;;;;;;;;;;;1835755;78;20174;-65
2022/11/18 10:47:07;;;;;;;;;;;;;;;;;;1809735;79;20172;-65
2022/11/18 10:49:34;;;;;;;;;;;;;;;;;;1812007;79;20212;-63
2022/11/18 10:52:01;;;;;;;;;;;;;;;;;;1788940;79;20215;-63
2022/11/18 10:54:28;;;;;;;;;;;;;;;;;;1835818;77;20132;-65
2022/11/18 10:56:55;;;;;;;;;;;;;;;;;;1835577;78;20178;-64
2022/11/18 10:59:21;;;;;;;;;;;;;;;;;;1835770;78;20221;-65
2022/11/18 11:01:48;;;;;;;;;;;;;;;;;;1836091;77;20185;-65
2022/11/18 11:04:15;;;;;;;;;;;;;;;;;;1809010;79;20214;-65
2022/11/18 11:06:42;;;;;;;;;;;;;;;;;;1814348;78;20892;-64
2022/11/18 11:09:09;;;;;;;;;;;;;;;;;;1765241;81;20422;-65
2022/11/18 11:11:36;;;;;;;;;;;;;;;;;;1757553;80;20506;-65
2022/11/18 11:14:03;;;;;;;;;;;;;;;;;;1781778;80;20337;-68
2022/11/18 11:16:30;;;;;;;;;;;;;;;;;;1764924;81;20978;-65
2022/11/18 11:18:57;;;;;;;;;;;;;;;;;;1783748;80;20408;-65
2022/11/18 11:21:24;;;;;;;;;;;;;;;;;;1783465;80;20183;-65
2022/11/18 11:23:51;;;;;;;;;;;;;;;;;;1788560;79;20192;-66
2022/11/18 11:26:18;;;;;;;;;;;;;;;;;;1835815;77;20179;-65
2022/11/18 11:28:45;;;;;;;;;;;;;;;;;;1809943;79;20192;-65
2022/11/18 11:31:12;;;;;;;;;;;;;;;;;;1765714;80;20239;-65
2022/11/18 11:33:39;;;;;;;;;;;;;;;;;;1783691;80;20173;-65
2022/11/18 11:36:05;;;;;;;;;;;;;;;;;;1781597;80;20171;-67
2022/11/18 11:38:32;;;;;;;;;;;;;;;;;;1812036;79;20172;-65
2022/11/18 11:41:00;;;;;;;;;;;;;;;;;;1811639;79;20155;-65
2022/11/18 11:43:26;;;;;;;;;;;;;;;;;;1788237;79;20192;-65
2022/11/18 11:45:53;;;;;;;;;;;;;;;;;;1836126;77;20322;-66
2022/11/18 11:48:21;;;;;;;;;;;;;;;;;;1812083;79;20622;-65
2022/11/18 11:50:54;;;;;;;;;;;;;;;;;;1765192;81;20196;-64
2022/11/18 11:53:21;;;;;;;;;;;;;;;;;;1783321;79;20230;-65
2022/11/18 11:55:48;;;;;;;;;;;;;;;;;;1756239;80;20158;-65
2022/11/18 11:58:15;;;;;;;;;;;;;;;;;;1766911;80;20259;-65
2022/11/18 12:00:43;;;;;;;;;;;;;;;;;;1756809;80;20202;-65
2022/11/18 12:03:10;;;;;;;;;;;;;;;;;;1781310;80;20168;-65
2022/11/18 12:05:38;;;;;;;;;;;;;;;;;;1814377;79;20163;-65
2022/11/18 12:08:05;;;;;;;;;;;;;;;;;;1765660;80;20215;-65
2022/11/18 12:10:31;;;;;;;;;;;;;;;;;;1783436;80;20245;-64
2022/11/18 12:12:58;;;;;;;;;;;;;;;;;;1782001;79;20130;-65
2022/11/18 12:15:25;;;;;;;;;;;;;;;;;;1815228;79;20228;-64
2022/11/18 12:17:52;;;;;;;;;;;;;;;;;;1812482;79;20172;-64
2022/11/18 12:20:19;;;;;;;;;;;;;;;;;;1766314;80;20308;-66
2022/11/18 12:22:46;;;;;;;;;;;;;;;;;;1782613;80;20205;-64
2022/11/18 12:25:13;;;;;;;;;;;;;;;;;;1756015;80;20173;-64
2022/11/18 12:27:40;;;;;;;;;;;;;;;;;;1765662;80;20215;-64
2022/11/18 12:30:07;;;;;;;;;;;;;;;;;;1783178;80;20139;-64
2022/11/18 12:32:35;;;;;;;;;;;;;;;;;;1782170;80;20177;-64
2022/11/18 12:35:01;;;;;;;;;;;;;;;;;;1812995;79;20168;-69
2022/11/18 12:37:28;;;;;;;;;;;;;;;;;;1765658;80;20598;-64
2022/11/18 12:39:55;;;;;;;;;;;;;;;;;;1784117;80;20166;-64
2022/11/18 12:45:07;;;;;;;;;;;;;;;;;;1789526;79;20425;-64
2022/11/18 12:47:34;;;;;;;;;;;;;;;;;;1812486;79;20187;-64
2022/11/18 12:50:01;;;;;;;;;;;;;;;;;;1765015;80;20458;-66
2022/11/18 12:52:28;;;;;;;;;;;;;;;;;;1784015;80;20209;-64
2022/11/18 12:54:55;;;;;;;;;;;;;;;;;;1782398;80;20194;-64
2022/11/18 12:57:22;;;;;;;;;;;;;;;;;;1811814;79;20634;-65
2022/11/18 12:59:49;;;;;;;;;;;;;;;;;;1835831;77;20159;-64
2022/11/18 13:02:17;;;;;;;;;;;;;;;;;;1812147;79;20507;-64
2022/11/18 13:04:44;;;;;;;;;;;;;;;;;;1812720;79;20179;-64
2022/11/18 13:08:11;;;;;;;;;;;;;;;;;;1813072;79;20192;-64
2022/11/18 13:09:40;;;;;;;;;;;;;;;;;;1807671;79;20238;-64
2022/11/18 13:12:07;;;;;;;;;;;;;;;;;;1764870;80;20204;-65
2022/11/18 13:20:04;;;;;;;;;;;;;;;;;;1788938;79;20184;-65
2022/11/18 13:25:15;;;;;;;;;;;;;;;;;;1809092;78;20582;-65
2022/11/18 13:27:43;;;;;;;;;;;;;;;;;;1811962;79;20172;-64
2022/11/18 13:30:10;;;;;;;;;;;;;;;;;;1767296;80;20194;-64
2022/11/18 13:32:37;;;;;;;;;;;;;;;;;;1757407;80;20123;-65
2022/11/18 13:35:04;;;;;;;;;;;;;;;;;;1782569;80;20167;-65
2022/11/18 13:37:31;;;;;;;;;;;;;;;;;;1766851;80;20196;-64
2022/11/18 13:39:58;;;;;;;;;;;;;;;;;;1756511;80;20217;-65
2022/11/18 13:42:25;;;;;;;;;;;;;;;;;;1782633;79;20196;-65
2022/11/18 13:44:52;;;;;;;;;;;;;;;;;;1767533;80;20184;-65
2022/11/18 13:47:19;;;;;;;;;;;;;;;;;;1756586;80;20198;-64
2022/11/18 13:49:46;;;;;;;;;;;;;;;;;;1782644;80;20162;-65
2022/11/18 13:52:13;;;;;;;;;;;;;;;;;;1811862;79;20171;-65
2022/11/18 13:54:40;;;;;;;;;;;;;;;;;;1790331;79;20461;-64
2022/11/18 13:57:07;;;;;;;;;;;;;;;;;;1813605;78;20175;-64
2022/11/18 13:59:34;;;;;;;;;;;;;;;;;;1813381;79;20168;-63
2022/11/18 14:02:01;;;;;;;;;;;;;;;;;;1789051;79;20188;-63
2022/11/18 14:04:28;;;;;;;;;;;;;;;;;;1812724;79;20168;-63
2022/11/18 14:06:55;;;;;;;;;;;;;;;;;;1789040;79;20184;-63
2022/11/18 14:09:22;;;;;;;;;;;;;;;;;;1809768;79;20208;-63
2022/11/18 14:11:49;;;;;;;;;;;;;;;;;;1788712;78;20131;-63
2022/11/18 14:14:16;;;;;;;;;;;;;;;;;;1812177;79;20195;-64
2022/11/18 14:16:43;;;;;;;;;;;;;;;;;;1813915;78;20472;-64
2022/11/18 14:19:10;;;;;;;;;;;;;;;;;;1765412;80;20417;-64
2022/11/18 14:21:37;;;;;;;;;;;;;;;;;;1757355;80;20162;-65
2022/11/18 14:24:05;;;;;;;;;;;;;;;;;;1782802;80;20517;-64
2022/11/18 14:26:32;;;;;;;;;;;;;;;;;;1813713;79;20172;-65
2022/11/18 14:29:00;;;;;;;;;;;;;;;;;;1765250;81;20183;-64
2022/11/18 14:31:27;;;;;;;;;;;;;;;;;;1783850;79;20156;-65
2022/11/18 14:33:54;;;;;;;;;;;;;;;;;;1783644;80;20170;-64
2022/11/18 14:36:21;;;;;;;;;;;;;;;;;;1813913;78;20160;-65
2022/11/18 14:38:48;;;;;;;;;;;;;;;;;;1764992;81;20157;-64
2022/11/18 14:41:15;;;;;;;;;;;;;;;;;;1757122;80;20190;-65
2022/11/18 14:43:44;;;;;;;;;;;;;;;;;;1784770;80;20231;-64
2022/11/18 14:46:11;;;;;;;;;;;;;;;;;;1813770;79;20223;-64
2022/11/18 14:48:38;;;;;;;;;;;;;;;;;;1812660;79;20191;-65
2022/11/18 14:51:05;;;;;;;;;;;;;;;;;;1765735;80;20524;-64
2022/11/18 14:53:32;;;;;;;;;;;;;;;;;;1782988;80;20907;-64
2022/11/18 14:55:59;;;;;;;;;;;;;;;;;;1780655;80;20181;-64
2022/11/18 14:58:26;;;;;;;;;;;;;;;;;;1788173;79;20180;-64
2022/11/18 15:00:53;;;;;;;;;;;;;;;;;;1835425;77;20932;-64
2022/11/18 15:03:20;;;;;;;;;;;;;;;;;;1835676;78;20182;-65
2022/11/18 15:05:47;;;;;;;;;;;;;;;;;;1809589;79;20206;-65
2022/11/18 15:08:15;;;;;;;;;;;;;;;;;;1789841;79;20210;-65
2022/11/18 15:10:42;;;;;;;;;;;;;;;;;;1836131;77;20221;-65
2022/11/18 15:13:09;;;;;;;;;;;;;;;;;;1812804;77;20420;-65
2022/11/18 15:15:36;;;;;;;;;;;;;;;;;;1765482;80;20200;-65
2022/11/18 15:18:03;;;;;;;;;;;;;;;;;;1756363;80;20174;-65
2022/11/18 15:20:30;;;;;;;;;;;;;;;;;;1754986;80;20237;-65
2022/11/18 15:22:57;;;;;;;;;;;;;;;;;;1765486;80;20180;-65
2022/11/18 15:25:24;;;;;;;;;;;;;;;;;;1757077;80;20182;-66
2022/11/18 15:27:50;;;;;;;;;;;;;;;;;;1781564;80;20178;-65
2022/11/18 15:30:19;;;;;;;;;;;;;;;;;;1813045;79;20524;-66
2022/11/18 15:32:46;;;;;;;;;;;;;;;;;;1814257;79;20168;-66
2022/11/18 15:35:13;;;;;;;;;;;;;;;;;;1812585;79;20180;-64
2022/11/18 15:37:41;;;;;;;;;;;;;;;;;;1810919;78;20200;-67
2022/11/18 15:40:08;;;;;;;;;;;;;;;;;;1765197;81;20211;-63
2022/11/18 15:42:35;;;;;;;;;;;;;;;;;;1757039;80;20918;-64
2022/11/18 15:45:02;;;;;;;;;;;;;;;;;;1783206;80;20186;-65
2022/11/18 15:47:28;;;;;;;;;;;;;;;;;;1812309;79;20167;-65
2022/11/18 15:49:55;;;;;;;;;;;;;;;;;;1789689;79;20245;-64
2022/11/18 15:52:22;;;;;;;;;;;;;;;;;;1809603;79;20184;-65
2022/11/18 15:54:49;;;;;;;;;;;;;;;;;;1813937;79;20207;-65
2022/11/18 15:57:16;;;;;;;;;;;;;;;;;;1766356;80;20196;-64
2022/11/18 15:59:43;;;;;;;;;;;;;;;;;;1757107;80;20174;-65
2022/11/18 16:02:10;;;;;;;;;;;;;;;;;;1782048;80;20174;-65
2022/11/18 16:04:37;;;;;;;;;;;;;;;;;;1812175;79;20381;-65
2022/11/18 16:07:04;;;;;;;;;;;;;;;;;;1740356;81;20958;-64
2022/11/18 16:17:48;;;;;;;;;;;;;;;;;;1755652;81;20176;-65
2022/11/18 16:20:15;;;;;;;;;;;;;;;;;;1782753;80;20217;-64
2022/11/18 16:22:42;;;;;;;;;;;;;;;;;;1781405;80;20557;-64
2022/11/18 16:25:09;;;;;;;;;;;;;;;;;;1765224;81;20930;-65
2022/11/18 16:27:36;;;;;;;;;;;;;;;;;;1757167;80;20226;-65
2022/11/18 16:30:03;;;;;;;;;;;;;;;;;;1782090;80;20552;-65
2022/11/18 16:32:30;;;;;;;;;;;;;;;;;;1788993;79;20430;-65
2022/11/18 16:34:58;;;;;;;;;;;;;;;;;;1812200;79;20168;-65
2022/11/18 16:37:25;;;;;;;;;;;;;;;;;;1789487;79;20311;-65
2022/11/18 16:39:52;;;;;;;;;;;;;;;;;;1839819;77;20314;-65
2022/11/18 16:42:19;;;;;;;;;;;;;;;;;;1812600;79;20433;-64
2022/11/18 16:44:46;;;;;;;;;;;;;;;;;;1790994;79;20179;-65
2022/11/18 16:47:13;;;;;;;;;;;;;;;;;;1836398;77;20870;-65
2022/11/18 16:49:40;;;;;;;;;;;;;;;;;;1809487;78;20431;-65
2022/11/18 16:52:08;;;;;;;;;;;;;;;;;;1809713;79;20187;-65
2022/11/18 16:54:35;;;;;;;;;;;;;;;;;;1765549;80;20351;-65
2022/11/18 16:57:02;;;;;;;;;;;;;;;;;;1784899;80;20177;-63
2022/11/18 16:59:29;;;;;;;;;;;;;;;;;;1755780;80;20373;-63
2022/11/18 17:01:56;;;;;;;;;;;;;;;;;;1812095;79;20176;-63
2022/11/18 17:04:23;;;;;;;;;;;;;;;;;;1765459;80;20531;-63
2022/11/18 17:06:50;;;;;;;;;;;;;;;;;;1757075;80;20392;-63
2022/11/18 17:09:17;;;;;;;;;;;;;;;;;;1755937;80;20229;-63
2022/11/18 17:11:44;;;;;;;;;;;;;;;;;;1789721;79;20175;-63